Time;durP1;ratioP1;P1;durP2;ratioP2;P2;SDS_P1;SDS_P2;PMS_P1;PMS_P2;Temp;Humidity;BMP_temperature;BMP_pressure;BME280_temperature;BME280_humidity;BME280_pressure;Samples;Min_cycle;Max_cycle;Signal;HPM_P1;HPM_P2
2021/08/18 00:00:28;;;;;;;29.23;18.15;;;;;18.70;100471.00;;;;5066861;28;20035;-71
2021/08/18 00:02:55;;;;;;;24.70;18.38;;;;;18.60;100467.00;;;;5066608;28;20025;-73
2021/08/18 00:05:22;;;;;;;24.67;16.73;;;;;18.60;100475.00;;;;5066634;28;20071;-72
2021/08/18 00:07:48;;;;;;;19.77;15.05;;;;;18.40;100467.00;;;;5066984;28;20059;-70
2021/08/18 00:10:15;;;;;;;20.65;16.70;;;;;18.40;100466.00;;;;5066247;28;20025;-72
2021/08/18 00:12:42;;;;;;;25.02;17.02;;;;;18.40;100462.00;;;;5066331;28;20064;-72
2021/08/18 00:15:11;;;;;;;24.17;17.05;;;;;18.40;100470.00;;;;5066456;28;20036;-71
2021/08/18 00:17:37;;;;;;;21.10;15.73;;;;;18.40;100483.00;;;;5066523;28;20032;-73
2021/08/18 00:20:04;;;;;;;24.58;15.48;;;;;18.30;100467.00;;;;5048595;28;20591;-71
2021/08/18 00:22:31;;;;;;;24.45;15.30;;;;;18.30;100464.00;;;;5065944;28;20039;-70
2021/08/18 00:24:57;;;;;;;26.55;16.42;;;;;18.30;100478.00;;;;5066085;28;20025;-70
2021/08/18 00:27:24;;;;;;;23.77;15.60;;;;;18.30;100482.00;;;;5066317;28;20044;-72
2021/08/18 00:29:50;;;;;;;30.75;15.30;;;;;18.20;100471.00;;;;5065479;28;20056;-72
2021/08/18 00:32:17;;;;;;;21.85;15.75;;;;;18.30;100461.00;;;;5037391;28;20060;-69
2021/08/18 00:34:44;;;;;;;25.02;15.73;;;;;18.30;100471.00;;;;5050122;28;20033;-71
2021/08/18 00:37:10;;;;;;;20.30;16.67;;;;;18.30;100468.00;;;;5046409;28;20468;-72
2021/08/18 00:39:37;;;;;;;18.63;16.42;;;;;18.30;100481.00;;;;5045989;28;20025;-72
2021/08/18 00:42:04;;;;;;;28.45;17.10;;;;;18.20;100482.00;;;;5046128;28;20043;-73
2021/08/18 00:44:34;;;;;;;25.00;16.60;;;;;18.20;100479.00;;;;5046144;28;20056;-69
2021/08/18 00:47:01;;;;;;;25.15;17.60;;;;;18.20;100464.00;;;;5046198;28;20115;-73
2021/08/18 00:49:28;;;;;;;23.30;17.38;;;;;18.20;100475.00;;;;5046591;28;20040;-73
2021/08/18 00:51:56;;;;;;;24.45;18.17;;;;;18.10;100476.00;;;;5046036;28;20116;-71
2021/08/18 00:54:24;;;;;;;23.10;18.05;;;;;18.10;100471.00;;;;5028036;28;20147;-69
2021/08/18 00:56:51;;;;;;;30.40;17.88;;;;;18.10;100462.00;;;;5045799;28;20082;-70
2021/08/18 00:59:18;;;;;;;27.90;19.48;;;;;18.10;100471.00;;;;5047626;28;20041;-70
2021/08/18 01:01:45;;;;;;;24.67;19.40;;;;;18.10;100465.00;;;;5046057;28;20029;-73
2021/08/18 01:04:14;;;;;;;35.22;19.55;;;;;18.10;100477.00;;;;5046114;28;20063;-73
2021/08/18 01:06:43;;;;;;;28.42;18.27;;;;;18.10;100489.00;;;;5046939;28;20403;-69
2021/08/18 01:09:11;;;;;;;22.33;17.65;;;;;18.00;100474.00;;;;5050130;28;20496;-71
2021/08/18 01:11:40;;;;;;;26.83;18.42;;;;;18.00;100481.00;;;;5049584;28;20474;-71
2021/08/18 01:14:07;;;;;;;22.15;18.17;;;;;18.00;100483.00;;;;5049835;28;21123;-72
2021/08/18 01:16:42;;;;;;;26.42;18.70;;;;;18.00;100481.00;;;;5049740;28;20021;-72
2021/08/18 01:19:10;;;;;;;28.58;18.67;;;;;18.00;100486.00;;;;5048025;28;20108;-70
2021/08/18 01:21:40;;;;;;;27.33;19.77;;;;;18.00;100486.00;;;;5049041;28;20037;-71
2021/08/18 01:24:08;;;;;;;31.73;20.20;;;;;17.90;100489.00;;;;5049266;28;20382;-69
2021/08/18 01:26:36;;;;;;;26.67;21.05;;;;;17.90;100473.00;;;;5049434;28;20519;-72
2021/08/18 01:29:03;;;;;;;32.67;21.38;;;;;17.90;100485.00;;;;5048358;28;20028;-72
2021/08/18 01:31:30;;;;;;;35.58;21.83;;;;;18.00;100496.00;;;;5048896;28;20021;-68
2021/08/18 01:34:02;;;;;;;27.42;21.55;;;;;17.90;100497.00;;;;5049291;28;20711;-70
2021/08/18 01:36:30;;;;;;;28.13;20.92;;;;;17.90;100492.00;;;;5049625;28;20110;-72
2021/08/18 01:39:04;;;;;;;28.83;20.27;;;;;17.90;100491.00;;;;5049110;28;20051;-72
2021/08/18 01:41:31;;;;;;;27.20;20.60;;;;;17.90;100489.00;;;;5048827;28;20028;-72
2021/08/18 01:43:58;;;;;;;37.67;22.00;;;;;17.90;100488.00;;;;5049029;28;20370;-72
2021/08/18 01:46:24;;;;;;;32.08;21.60;;;;;17.80;100486.00;;;;5048479;28;20040;-72
2021/08/18 01:48:55;;;;;;;28.52;20.23;;;;;17.80;100494.00;;;;5049832;28;20045;-73
2021/08/18 01:51:22;;;;;;;25.88;18.52;;;;;17.70;100491.00;;;;5049725;28;20069;-70
2021/08/18 01:53:48;;;;;;;27.30;20.23;;;;;17.70;100490.00;;;;5031416;28;20048;-72
2021/08/18 01:56:18;;;;;;;28.25;20.13;;;;;17.70;100505.00;;;;5049060;28;20072;-72
2021/08/18 01:58:48;;;;;;;30.10;18.75;;;;;17.60;100501.00;;;;5048653;28;20595;-72
2021/08/18 02:01:16;;;;;;;32.38;20.08;;;;;17.60;100500.00;;;;5048797;28;20095;-69
2021/08/18 02:03:43;;;;;;;23.58;17.88;;;;;17.60;100505.00;;;;5049099;28;20033;-71
2021/08/18 02:06:10;;;;;;;30.98;19.65;;;;;17.50;100495.00;;;;5031154;28;20040;-71
2021/08/18 02:08:37;;;;;;;27.55;18.38;;;;;17.50;100506.00;;;;5048724;28;20412;-73
2021/08/18 02:11:03;;;;;;;30.42;19.40;;;;;17.50;100507.00;;;;5049170;28;20032;-72
2021/08/18 02:13:31;;;;;;;25.20;18.85;;;;;17.50;100499.00;;;;5049114;28;20043;-72
2021/08/18 02:15:58;;;;;;;30.45;21.17;;;;;17.50;100508.00;;;;5048711;28;20075;-71
2021/08/18 02:18:24;;;;;;;30.95;22.80;;;;;17.60;100511.00;;;;5047481;28;20025;-72
2021/08/18 02:20:51;;;;;;;36.15;22.52;;;;;17.70;100499.00;;;;5048386;28;20033;-69
2021/08/18 02:23:18;;;;;;;41.83;21.83;;;;;17.70;100499.00;;;;5048697;28;20040;-71
2021/08/18 02:25:44;;;;;;;36.85;21.75;;;;;17.70;100504.00;;;;5048316;28;20075;-71
2021/08/18 02:28:12;;;;;;;33.55;22.75;;;;;17.70;100518.00;;;;5048331;28;20037;-69
2021/08/18 02:30:39;;;;;;;28.58;20.00;;;;;17.60;100509.00;;;;5048434;28;20052;-71
2021/08/18 02:33:06;;;;;;;40.85;23.40;;;;;17.70;100510.00;;;;5048933;28;20464;-70
2021/08/18 02:35:33;;;;;;;35.90;19.77;;;;;17.60;100510.00;;;;5048652;28;20067;-70
2021/08/18 02:38:01;;;;;;;37.03;21.33;;;;;17.60;100511.00;;;;5048348;28;20123;-70
2021/08/18 02:40:28;;;;;;;30.90;20.13;;;;;17.50;100499.00;;;;5048063;28;20112;-70
2021/08/18 02:42:57;;;;;;;33.50;20.60;;;;;17.50;100497.00;;;;5048182;28;20119;-72
2021/08/18 02:45:25;;;;;;;31.05;20.70;;;;;17.50;100495.00;;;;5048604;28;20393;-69
2021/08/18 02:47:51;;;;;;;37.20;20.10;;;;;17.50;100510.00;;;;5048301;28;20040;-70
2021/08/18 02:50:21;;;;;;;36.05;20.63;;;;;17.50;100496.00;;;;5048162;28;20029;-71
2021/08/18 02:52:48;;;;;;;29.92;20.27;;;;;17.40;100503.00;;;;5048298;28;20037;-72
2021/08/18 02:55:15;;;;;;;30.63;20.48;;;;;17.50;100489.00;;;;5047541;28;20052;-70
2021/08/18 02:57:41;;;;;;;31.52;19.52;;;;;17.40;100497.00;;;;5048021;28;20487;-72
2021/08/18 03:00:09;;;;;;;30.23;20.42;;;;;17.40;100499.00;;;;5048194;28;20126;-71
2021/08/18 03:02:35;;;;;;;34.97;20.90;;;;;17.40;100491.00;;;;5048067;28;20056;-72
2021/08/18 03:05:03;;;;;;;34.35;21.17;;;;;17.40;100485.00;;;;5047994;28;20132;-71
2021/08/18 03:07:29;;;;;;;36.05;22.48;;;;;17.50;100488.00;;;;5046861;28;20036;-72
2021/08/18 03:09:56;;;;;;;29.95;20.80;;;;;17.40;100491.00;;;;5047898;28;20029;-72
2021/08/18 03:12:23;;;;;;;35.42;20.70;;;;;17.40;100482.00;;;;5048202;28;20582;-72
2021/08/18 03:14:49;;;;;;;32.75;21.27;;;;;17.40;100476.00;;;;5047496;28;20100;-71
2021/08/18 03:17:16;;;;;;;29.55;22.30;;;;;17.40;100487.00;;;;5047492;28;20057;-71
2021/08/18 03:19:42;;;;;;;35.40;22.08;;;;;17.40;100483.00;;;;5046962;28;20507;-71
2021/08/18 03:22:09;;;;;;;31.02;21.00;;;;;17.30;100479.00;;;;5046661;28;20404;-72
2021/08/18 03:24:36;;;;;;;30.90;20.98;;;;;17.30;100474.00;;;;5047537;28;20033;-73
2021/08/18 03:27:05;;;;;;;32.28;20.58;;;;;17.30;100467.00;;;;5047268;28;20136;-72
2021/08/18 03:29:32;;;;;;;32.20;21.92;;;;;17.30;100467.00;;;;5046840;28;20400;-73
2021/08/18 03:31:58;;;;;;;28.65;20.25;;;;;17.20;100477.00;;;;5047492;28;20021;-71
2021/08/18 03:34:25;;;;;;;28.90;20.20;;;;;17.20;100484.00;;;;5047524;28;20036;-72
2021/08/18 03:36:51;;;;;;;35.00;21.38;;;;;17.20;100469.00;;;;5046757;28;20039;-72
2021/08/18 03:39:18;;;;;;;22.75;16.70;;;;;17.10;100461.00;;;;5047209;28;20025;-70
2021/08/18 03:41:44;;;;;;;28.80;18.75;;;;;17.10;100463.00;;;;5047430;28;20032;-71
2021/08/18 03:44:11;;;;;;;30.00;19.27;;;;;17.00;100470.00;;;;5046997;28;20456;-73
2021/08/18 03:46:37;;;;;;;37.50;21.48;;;;;17.00;100467.00;;;;5046687;28;20032;-69
2021/08/18 03:49:04;;;;;;;32.78;20.20;;;;;17.00;100465.00;;;;5046371;28;20041;-73
2021/08/18 03:51:30;;;;;;;28.92;19.00;;;;;17.00;100452.00;;;;5046723;28;20029;-73
2021/08/18 03:53:57;;;;;;;17.10;14.35;;;;;17.00;100450.00;;;;5046841;28;20033;-69
2021/08/18 03:56:24;;;;;;;23.45;15.35;;;;;16.90;100461.00;;;;5047280;28;20040;-71
2021/08/18 03:58:50;;;;;;;29.98;18.73;;;;;16.90;100448.00;;;;5046791;28;20439;-72
2021/08/18 04:01:17;;;;;;;27.40;18.05;;;;;16.90;100450.00;;;;5046538;28;20056;-73
2021/08/18 04:03:43;;;;;;;23.85;18.15;;;;;16.90;100449.00;;;;5046641;28;20113;-69
2021/08/18 04:06:10;;;;;;;29.17;20.08;;;;;16.90;100445.00;;;;5046834;28;20514;-71
2021/08/18 04:08:36;;;;;;;26.92;18.30;;;;;16.80;100454.00;;;;5046721;28;20079;-71
2021/08/18 04:11:05;;;;;;;32.40;20.65;;;;;16.70;100447.00;;;;5046673;28;20067;-72
2021/08/18 04:13:32;;;;;;;28.10;20.20;;;;;16.70;100443.00;;;;5046893;28;20025;-71
2021/08/18 04:15:58;;;;;;;26.77;18.42;;;;;16.70;100435.00;;;;5046360;28;20032;-70
2021/08/18 04:18:25;;;;;;;23.33;18.45;;;;;16.70;100444.00;;;;5046254;28;20118;-72
2021/08/18 04:20:51;;;;;;;34.15;22.02;;;;;16.80;100443.00;;;;5046528;28;20412;-69
2021/08/18 04:23:18;;;;;;;29.23;20.10;;;;;16.70;100419.00;;;;5046663;28;20033;-69
2021/08/18 04:25:45;;;;;;;27.13;19.65;;;;;16.70;100437.00;;;;5046299;28;20059;-69
2021/08/18 04:28:11;;;;;;;21.58;17.13;;;;;16.60;100430.00;;;;5046308;28;20530;-71
2021/08/18 04:30:38;;;;;;;36.88;22.17;;;;;16.70;100410.00;;;;5046241;28;20029;-70
2021/08/18 04:33:04;;;;;;;35.92;22.10;;;;;16.70;100417.00;;;;5046003;28;20033;-70
2021/08/18 04:35:31;;;;;;;30.55;21.20;;;;;16.70;100433.00;;;;5046943;28;20025;-73
2021/08/18 04:37:57;;;;;;;28.77;21.23;;;;;16.70;100414.00;;;;5046460;28;20031;-70
2021/08/18 04:40:24;;;;;;;31.48;22.13;;;;;16.70;100421.00;;;;5046492;28;20408;-72
2021/08/18 04:42:51;;;;;;;35.13;20.77;;;;;16.80;100430.00;;;;5052418;28;20033;-72
2021/08/18 04:45:18;;;;;;;33.28;22.92;;;;;16.80;100420.00;;;;5052228;28;20403;-70
2021/08/18 04:47:45;;;;;;;33.72;22.08;;;;;16.80;100404.00;;;;5052652;28;20404;-70
2021/08/18 04:50:13;;;;;;;31.38;21.95;;;;;16.80;100408.00;;;;5053143;28;20787;-72
2021/08/18 04:52:40;;;;;;;32.13;22.17;;;;;16.80;100397.00;;;;5052743;28;20033;-72
2021/08/18 04:55:07;;;;;;;32.80;22.88;;;;;16.80;100397.00;;;;5053010;28;20122;-71
2021/08/18 04:57:34;;;;;;;36.10;23.88;;;;;16.80;100392.00;;;;5055592;28;20029;-71
2021/08/18 05:00:00;;;;;;;32.13;21.35;;;;;16.80;100387.00;;;;5052789;28;20056;-70
2021/08/18 05:02:27;;;;;;;34.05;21.00;;;;;16.80;100377.00;;;;5053003;28;20378;-69
2021/08/18 05:04:53;;;;;;;38.65;23.20;;;;;16.80;100383.00;;;;5053047;28;20028;-69
2021/08/18 05:07:20;;;;;;;28.23;21.27;;;;;16.80;100385.00;;;;5052585;28;20110;-70
2021/08/18 05:09:47;;;;;;;40.47;22.73;;;;;16.80;100365.00;;;;5052902;28;20041;-70
2021/08/18 05:12:13;;;;;;;27.42;21.38;;;;;16.70;100364.00;;;;5052629;28;20025;-70
2021/08/18 05:14:40;;;;;;;26.63;19.67;;;;;16.70;100364.00;;;;5052433;28;20032;-71
2021/08/18 05:17:06;;;;;;;27.30;21.17;;;;;16.60;100359.00;;;;5053245;28;20025;-71
2021/08/18 05:19:33;;;;;;;27.42;19.70;;;;;16.60;100354.00;;;;5052741;28;20029;-72
2021/08/18 05:22:00;;;;;;;28.67;20.75;;;;;16.60;100345.00;;;;5052567;28;20471;-72
2021/08/18 05:24:26;;;;;;;30.08;21.50;;;;;16.60;100344.00;;;;5052436;28;20033;-70
2021/08/18 05:26:53;;;;;;;31.23;20.98;;;;;16.60;100336.00;;;;5052405;28;20116;-71
2021/08/18 05:29:19;;;;;;;34.65;22.88;;;;;16.70;100320.00;;;;5052236;28;20510;-71
2021/08/18 05:31:46;;;;;;;35.17;24.42;;;;;16.70;100314.00;;;;5052408;28;20113;-71
2021/08/18 05:34:13;;;;;;;34.38;23.70;;;;;16.70;100304.00;;;;5054445;28;20029;-72
2021/08/18 05:36:39;;;;;;;38.72;22.98;;;;;16.70;100309.00;;;;5052581;28;20029;-71
2021/08/18 05:39:06;;;;;;;36.85;21.92;;;;;16.60;100306.00;;;;5052645;28;20429;-70
2021/08/18 05:41:33;;;;;;;37.15;23.90;;;;;16.60;100301.00;;;;5052260;28;20029;-70
2021/08/18 05:43:59;;;;;;;41.45;24.23;;;;;16.60;100287.00;;;;5052314;28;20025;-69
2021/08/18 05:46:27;;;;;;;35.08;22.20;;;;;16.60;100276.00;;;;5052405;28;20037;-71
2021/08/18 05:48:53;;;;;;;27.58;18.85;;;;;16.50;100283.00;;;;5052269;28;20049;-70
2021/08/18 05:51:20;;;;;;;32.35;20.75;;;;;16.60;100290.00;;;;5052360;28;20021;-70
2021/08/18 05:53:50;;;;;;;36.88;22.80;;;;;16.60;100275.00;;;;5030688;28;20068;-72
2021/08/18 05:56:20;;;;;;;29.00;20.98;;;;;16.60;100269.00;;;;5048666;28;20130;-70
2021/08/18 05:58:46;;;;;;;33.72;22.58;;;;;16.50;100286.00;;;;5049599;28;20040;-70
2021/08/18 06:01:14;;;;;;;37.70;24.35;;;;;16.50;100265.00;;;;5048959;28;20025;-72
2021/08/18 06:03:40;;;;;;;35.85;23.35;;;;;16.60;100264.00;;;;5048761;28;20033;-71
2021/08/18 06:06:07;;;;;;;40.28;24.17;;;;;16.60;100262.00;;;;5048395;28;20083;-72
2021/08/18 06:08:33;;;;;;;40.25;24.52;;;;;16.70;100277.00;;;;5048934;28;20064;-70
2021/08/18 06:11:00;;;;;;;32.03;22.85;;;;;16.70;100247.00;;;;5048969;28;20108;-73
2021/08/18 06:13:28;;;;;;;33.42;23.33;;;;;16.70;100224.00;;;;5049104;28;20029;-71
2021/08/18 06:15:55;;;;;;;35.50;23.33;;;;;16.70;100217.00;;;;5048878;28;20107;-72
2021/08/18 06:18:21;;;;;;;35.85;21.77;;;;;16.60;100229.00;;;;5048866;28;20029;-71
2021/08/18 06:20:48;;;;;;;33.08;20.90;;;;;16.60;100239.00;;;;5048984;28;20388;-71
2021/08/18 06:23:20;;;;;;;35.28;22.63;;;;;16.70;100212.00;;;;5048967;28;20033;-69
2021/08/18 06:25:46;;;;;;;38.63;24.63;;;;;16.60;100212.00;;;;5048361;28;20037;-72
2021/08/18 06:28:13;;;;;;;33.00;22.55;;;;;16.60;100208.00;;;;5048547;28;20044;-72
2021/08/18 06:30:39;;;;;;;36.60;22.35;;;;;16.60;100221.00;;;;5048240;28;20025;-71
2021/08/18 06:33:06;;;;;;;31.30;22.25;;;;;16.60;100218.00;;;;5048794;28;20130;-69
2021/08/18 06:35:33;;;;;;;38.35;23.35;;;;;16.60;100205.00;;;;5047950;28;20067;-71
2021/08/18 06:37:59;;;;;;;31.85;21.73;;;;;16.60;100203.00;;;;5048646;28;20153;-72
2021/08/18 06:40:26;;;;;;;32.42;19.08;;;;;16.60;100204.00;;;;5048703;28;20021;-70
2021/08/18 06:42:52;;;;;;;29.70;20.90;;;;;16.60;100215.00;;;;5048799;28;20040;-68
2021/08/18 06:45:19;;;;;;;31.88;21.73;;;;;16.60;100232.00;;;;5048141;28;20029;-72
2021/08/18 06:47:45;;;;;;;31.33;22.17;;;;;16.70;100233.00;;;;5048001;28;20028;-71
2021/08/18 06:50:12;;;;;;;33.83;23.83;;;;;16.80;100238.00;;;;5048107;28;20040;-71
2021/08/18 06:52:39;;;;;;;31.50;21.52;;;;;16.70;100240.00;;;;5048199;28;20400;-70
2021/08/18 06:55:08;;;;;;;32.15;23.52;;;;;16.80;100239.00;;;;5049507;28;20511;-71
2021/08/18 06:57:35;;;;;;;38.63;24.10;;;;;16.90;100241.00;;;;5048268;28;20068;-72
2021/08/18 07:00:01;;;;;;;41.67;26.02;;;;;17.10;100241.00;;;;5048261;28;20148;-70
2021/08/18 07:02:28;;;;;;;28.05;21.95;;;;;17.10;100231.00;;;;5047632;28;20052;-72
2021/08/18 07:04:54;;;;;;;25.58;22.00;;;;;17.00;100231.00;;;;5047743;28;20094;-70
2021/08/18 07:07:21;;;;;;;29.08;21.75;;;;;17.00;100218.00;;;;5047583;28;20475;-70
2021/08/18 07:09:47;;;;;;;30.33;21.15;;;;;17.00;100216.00;;;;5047699;28;20120;-71
2021/08/18 07:12:14;;;;;;;30.60;21.70;;;;;17.10;100233.00;;;;5047562;28;20132;-71
2021/08/18 07:14:40;;;;;;;25.63;20.38;;;;;17.20;100215.00;;;;5046500;28;20033;-71
2021/08/18 07:17:07;;;;;;;28.98;21.20;;;;;17.20;100211.00;;;;5047177;28;20037;-72
2021/08/18 07:19:33;;;;;;;23.95;19.58;;;;;17.20;100210.00;;;;5047500;28;20040;-71
2021/08/18 07:22:00;;;;;;;26.35;20.48;;;;;17.20;100204.00;;;;5047414;28;20377;-69
2021/08/18 07:24:26;;;;;;;25.75;19.55;;;;;17.10;100217.00;;;;5047245;28;20025;-72
2021/08/18 07:26:53;;;;;;;26.67;19.77;;;;;17.00;100203.00;;;;5046992;28;20029;-70
2021/08/18 07:29:20;;;;;;;25.35;19.15;;;;;17.00;100207.00;;;;5047269;28;20591;-70
2021/08/18 07:31:46;;;;;;;22.90;20.45;;;;;17.00;100198.00;;;;5047089;28;20037;-69
2021/08/18 07:34:13;;;;;;;23.00;18.55;;;;;17.00;100205.00;;;;5047148;28;20036;-69
2021/08/18 07:36:39;;;;;;;27.20;19.65;;;;;17.00;100231.00;;;;5047454;28;20068;-71
2021/08/18 07:39:06;;;;;;;30.92;23.05;;;;;17.40;100245.00;;;;5047431;28;20094;-71
2021/08/18 07:41:32;;;;;;;45.13;32.05;;;;;18.00;100241.00;;;;5047565;28;20032;-72
2021/08/18 07:43:59;;;;;;;39.55;25.70;;;;;18.00;100250.00;;;;5047189;28;20033;-71
2021/08/18 07:46:25;;;;;;;43.97;27.38;;;;;17.90;100258.00;;;;5046889;28;20494;-70
2021/08/18 07:48:52;;;;;;;44.17;26.75;;;;;17.80;100248.00;;;;5046580;28;20025;-70
2021/08/18 07:51:18;;;;;;;43.35;28.70;;;;;17.60;100269.00;;;;5047438;28;20029;-71
2021/08/18 07:53:45;;;;;;;47.70;30.58;;;;;17.40;100269.00;;;;5047236;28;20124;-72
2021/08/18 07:56:12;;;;;;;43.95;30.15;;;;;17.30;100250.00;;;;5046962;28;20400;-71
2021/08/18 07:58:38;;;;;;;47.88;31.75;;;;;17.20;100262.00;;;;5046970;28;20390;-71
2021/08/18 08:01:05;;;;;;;44.95;29.45;;;;;17.20;100252.00;;;;5046728;28;20119;-70
2021/08/18 08:03:32;;;;;;;46.42;29.48;;;;;17.10;100246.00;;;;5047418;28;20025;-70
2021/08/18 08:05:59;;;;;;;47.00;28.90;;;;;17.10;100253.00;;;;5046465;28;20119;-70
2021/08/18 08:08:25;;;;;;;50.67;30.52;;;;;17.10;100276.00;;;;5046838;28;20562;-70
2021/08/18 08:10:52;;;;;;;44.50;29.52;;;;;17.10;100308.00;;;;5046710;28;20029;-72
2021/08/18 08:13:18;;;;;;;47.50;31.42;;;;;17.20;100390.00;;;;5046532;28;20769;-71
2021/08/18 08:15:45;;;;;;;43.33;31.25;;;;;17.20;100422.00;;;;5045862;28;20040;-73
2021/08/18 08:18:11;;;;;;;50.35;28.35;;;;;17.10;100372.00;;;;5046194;28;20025;-71
2021/08/18 08:20:42;;;;;;;51.35;34.50;;;;;16.80;100357.00;;;;5045180;28;20033;-72
2021/08/18 08:23:09;;;;;;;63.08;39.28;;;;;16.60;100351.00;;;;5046355;28;20037;-72
2021/08/18 08:25:36;;;;;;;59.25;36.22;;;;;16.40;100349.00;;;;5046713;28;20041;-70
2021/08/18 08:28:02;;;;;;;46.28;28.48;;;;;16.30;100322.00;;;;5046264;28;20037;-70
2021/08/18 08:30:29;;;;;;;42.65;29.73;;;;;16.10;100335.00;;;;5046201;28;20075;-71
2021/08/18 08:32:55;;;;;;;48.65;29.23;;;;;16.00;100332.00;;;;5046635;28;20057;-70
2021/08/18 08:35:22;;;;;;;41.55;27.25;;;;;15.90;100314.00;;;;5046349;28;20087;-70
2021/08/18 08:37:48;;;;;;;45.00;27.83;;;;;15.80;100300.00;;;;5046489;28;20116;-72
2021/08/18 08:40:15;;;;;;;43.92;27.38;;;;;15.70;100296.00;;;;5046072;28;20037;-71
2021/08/18 08:42:42;;;;;;;42.15;28.02;;;;;15.70;100331.00;;;;5046579;28;21102;-72
2021/08/18 08:45:11;;;;;;;48.45;29.42;;;;;15.60;100318.00;;;;5048516;28;20444;-71
2021/08/18 08:47:38;;;;;;;49.33;29.20;;;;;15.60;100313.00;;;;5056200;28;20030;-71
2021/08/18 08:50:09;;;;;;;44.95;29.92;;;;;15.80;100324.00;;;;5055854;28;20033;-69
2021/08/18 08:52:36;;;;;;;45.08;28.13;;;;;15.90;100297.00;;;;5052568;28;20033;-71
2021/08/18 08:55:05;;;;;;;55.75;29.17;;;;;15.90;100301.00;;;;5045670;28;20496;-70
2021/08/18 08:57:32;;;;;;;44.88;27.17;;;;;15.90;100305.00;;;;5045691;28;20063;-71
2021/08/18 08:59:58;;;;;;;39.08;26.17;;;;;15.80;100301.00;;;;5045740;28;20056;-69
2021/08/18 09:02:25;;;;;;;42.95;26.40;;;;;15.70;100286.00;;;;5046129;28;20518;-72
2021/08/18 09:04:52;;;;;;;46.10;26.13;;;;;15.80;100275.00;;;;5046872;28;20734;-69
2021/08/18 09:07:21;;;;;;;41.40;26.08;;;;;15.80;100268.00;;;;5045364;28;20067;-71
2021/08/18 09:10:03;;;;;;;39.92;25.90;;;;;15.80;100273.00;;;;5045887;28;20029;-69
2021/08/18 09:12:39;;;;;;;36.95;23.42;;;;;15.90;100260.00;;;;5045316;28;20108;-70
2021/08/18 09:15:17;;;;;;;39.78;24.65;;;;;16.00;100264.00;;;;5045541;28;20055;-71
2021/08/18 09:17:45;;;;;;;38.92;24.00;;;;;16.00;100283.00;;;;5045985;28;20029;-70
2021/08/18 09:20:20;;;;;;;35.60;24.95;;;;;16.10;100303.00;;;;5045435;28;20028;-69
2021/08/18 09:23:08;;;;;;;36.28;23.73;;;;;16.10;100336.00;;;;5045417;28;20119;-70
2021/08/18 09:25:38;;;;;;;40.47;23.90;;;;;16.10;100380.00;;;;5046124;28;20151;-70
2021/08/18 09:28:05;;;;;;;40.77;25.27;;;;;16.30;100459.00;;;;5047559;28;20055;-69
2021/08/18 09:30:40;;;;;;;33.28;22.92;;;;;16.80;100519.00;;;;5049228;28;20274;-72
2021/08/18 09:33:11;;;;;;;33.17;23.02;;;;;17.10;100570.00;;;;5048955;28;20043;-70
2021/08/18 09:35:38;;;;;;;31.73;21.17;;;;;17.10;100591.00;;;;5049166;28;20064;-70
2021/08/18 09:38:08;;;;;;;26.55;19.27;;;;;17.00;100670.00;;;;5049411;28;20048;-70
2021/08/18 09:40:39;;;;;;;31.88;21.45;;;;;16.90;100794.00;;;;5049063;28;20424;-71
2021/08/18 09:43:13;;;;;;;24.08;16.55;;;;;16.90;100854.00;;;;5048810;28;20361;-70
2021/08/18 09:45:56;;;;;;;29.17;19.17;;;;;16.70;100814.00;;;;5049467;28;20163;-71
2021/08/18 09:48:28;;;;;;;31.05;19.80;;;;;16.50;100796.00;;;;5048944;28;20029;-70
2021/08/18 09:51:00;;;;;;;26.83;19.40;;;;;16.30;100744.00;;;;5048262;28;20443;-71
2021/08/18 09:53:27;;;;;;;;;;;;;16.20;100711.00;;;;5049876;28;20468;-70
2021/08/18 09:56:16;;;;;;;33.63;22.70;;;;;15.90;100713.00;;;;5048508;28;20027;-72
2021/08/18 09:58:55;;;;;;;43.13;27.00;;;;;15.80;100680.00;;;;5031397;28;20429;-71
2021/08/18 10:01:22;;;;;;;42.13;27.13;;;;;15.80;100657.00;;;;5049156;28;20036;-69
2021/08/18 10:03:52;;;;;;;40.38;25.70;;;;;15.80;100653.00;;;;5048661;28;20032;-71
2021/08/18 10:06:19;;;;;;;41.20;26.80;;;;;15.70;100678.00;;;;5048049;28;20518;-70
2021/08/18 10:08:51;;;;;;;52.25;34.65;;;;;15.60;100681.00;;;;5048730;28;20401;-71
2021/08/18 10:11:18;;;;;;;45.13;27.27;;;;;15.60;100677.00;;;;5048920;28;20112;-70
2021/08/18 10:13:45;;;;;;;52.88;34.88;;;;;15.60;100717.00;;;;5048885;28;20036;-70
2021/08/18 10:16:13;;;;;;;53.63;32.35;;;;;15.70;100721.00;;;;5049160;28;20064;-69
2021/08/18 10:18:47;;;;;;;48.58;32.08;;;;;15.70;100789.00;;;;5048468;28;20443;-68
2021/08/18 10:21:31;;;;;;;65.85;40.17;;;;;15.80;100953.00;;;;5048996;28;20036;-70
2021/08/18 10:24:03;;;;;;;53.40;32.03;;;;;15.90;101107.00;;;;5049092;28;20530;-69
2021/08/18 10:26:39;;;;;;;47.42;31.73;;;;;16.00;101086.00;;;;5047275;28;20485;-71
2021/08/18 10:29:12;;;;;;;40.65;26.77;;;;;16.00;101013.00;;;;5048512;28;20091;-70
2021/08/18 10:31:45;;;;;;;39.70;28.92;;;;;15.90;100998.00;;;;5048759;28;20033;-69
2021/08/18 10:34:25;;;;;;;53.65;28.23;;;;;15.90;101016.00;;;;5048690;28;20025;-69
2021/08/18 10:36:53;;;;;;;40.00;25.67;;;;;15.90;100989.00;;;;5048730;28;20040;-69
2021/08/18 10:39:19;;;;;;;41.83;27.48;;;;;15.90;100950.00;;;;5029797;28;20033;-71
2021/08/18 10:42:07;;;;;;;46.75;27.38;;;;;15.90;100848.00;;;;5047730;28;20041;-68
2021/08/18 10:44:41;;;;;;;41.78;25.63;;;;;15.80;100735.00;;;;5048163;28;20528;-68
2021/08/18 10:47:17;;;;;;;40.70;25.63;;;;;15.80;100715.00;;;;5048539;28;20039;-70
2021/08/18 11:11:57;;;;;;;24.15;15.48;;;;;16.50;100850.00;;;;5124930;27;20942;-70
2021/08/18 11:14:35;;;;;;;19.85;13.18;;;;;16.30;100815.00;;;;5103812;28;20032;-70
2021/08/18 11:17:07;;;;;;;24.77;15.50;;;;;16.30;100765.00;;;;5104399;28;20414;-69
2021/08/18 11:19:33;;;;;;;;;;;;;16.20;100777.00;;;;5104483;28;20039;-71
2021/08/18 11:22:00;;;;;;;19.50;13.55;;;;;16.40;100813.00;;;;5103687;28;20007;-72
2021/08/18 11:24:26;;;;;;;20.85;15.90;;;;;16.40;100866.00;;;;5104111;28;20081;-71
2021/08/18 11:26:53;;;;;;;23.20;15.68;;;;;16.40;100951.00;;;;5103542;28;20110;-69
2021/08/18 11:29:22;;;;;;;23.10;14.85;;;;;16.50;101056.00;;;;5104011;28;20024;-69
2021/08/18 11:31:53;;;;;;;26.60;16.35;;;;;16.50;101077.00;;;;5103648;28;20401;-69
2021/08/18 11:34:34;;;;;;;24.38;15.98;;;;;16.50;101052.00;;;;5103961;28;20490;-70
2021/08/18 11:37:04;;;;;;;31.55;22.27;;;;;16.50;101066.00;;;;5103733;28;20054;-71
2021/08/18 11:39:34;;;;;;;40.65;29.52;;;;;16.50;101041.00;;;;5104011;28;20032;-71
2021/08/18 11:42:16;;;;;;;56.35;34.22;;;;;16.50;101055.00;;;;5103359;28;20024;-71
2021/08/18 11:44:44;;;;;;;44.70;24.10;;;;;16.40;101021.00;;;;5103926;28;20035;-70
2021/08/18 11:47:14;;;;;;;52.17;26.65;;;;;16.50;101011.00;;;;5103831;28;20028;-70
2021/08/18 11:49:45;;;;;;;77.88;26.05;;;;;16.50;101033.00;;;;5103678;28;20027;-69
2021/08/18 11:52:20;;;;;;;73.10;26.08;;;;;16.50;101013.00;;;;5103473;28;20028;-70
2021/08/18 11:55:00;;;;;;;37.90;21.17;;;;;16.50;100986.00;;;;5103964;28;20208;-70
2021/08/18 11:57:27;;;;;;;32.30;21.70;;;;;16.50;100961.00;;;;5103827;28;20063;-70
2021/08/18 11:59:56;;;;;;;31.52;19.95;;;;;16.40;100959.00;;;;5103636;28;20028;-70
2021/08/18 12:02:27;;;;;;;23.63;16.42;;;;;16.40;100955.00;;;;5103683;28;20034;-70
2021/08/18 12:04:57;;;;;;;;;;;;;16.40;100959.00;;;;5103376;28;20077;-70
2021/08/18 12:07:28;;;;;;;22.77;16.35;;;;;16.40;100960.00;;;;5103115;28;19923;-70
2021/08/18 12:10:18;;;;;;;21.15;15.00;;;;;16.30;100896.00;;;;5103113;28;20094;-70
2021/08/18 12:12:46;;;;;;;20.50;14.63;;;;;16.30;100880.00;;;;5090548;28;20027;-70
2021/08/18 12:15:15;;;;;;;18.17;13.70;;;;;16.30;100874.00;;;;5089673;28;20036;-71
2021/08/18 12:17:44;;;;;;;18.05;13.18;;;;;16.30;100887.00;;;;5089492;28;20032;-70